Aérodrome :
LOGIN :

S'inscrire | Disclaimer

   EN    FR    IT 

 










Légende :    VFR   VFR Marginal   IFR   IFR Intensif   IFR Très Intensif
Visi : 
Plafond : 
>= 8 km
>= 3000ft
5 à 8 km
1000 à 3000 ft
1500m à 5 km
500 à 1000 ft
800 à 1500m
200 à 500 ft
< 800m
< 200 ft
Symboles :   Orages  Brouillard  Fortes neiges  Fortes précipitations  Vent > 20 kt
SIGMETs :   Divers  Orages  Givrage  Turbulence  Onde Orograph.  Cendres Volcan.







- Altitude de l'aérodrome : 239 ft
- Code IATA : VRN


LIPX - Villafranca Int. Verona

DERNIER METAR :
  • 200150Z 27003KT 9999 SCT060 12/09 Q1014

METARs EXPIRÉS :
  • 200120Z 26004KT 9999 SCT060 12/09 Q1014
  • 200050Z 24004KT 9999 SCT060 12/09 Q1014
  • 200020Z 24004KT 200V270 9999 SCT060 12/09 Q1014
  • 192350Z 26003KT 9999 SCT060 12/09 Q1014
  • 192320Z VRB02KT 9999 SCT060 12/10 Q1014

TAF TAF LIPX
Valide du 20 à 00h jusqu'au 20 à 09h UTC


192300Z 2000/2009 VRB05KT 9999 SCT070
Pas de NOTAMs connus pour ce terrain.
1 SIGMET publié pour la FIR Milano (LIMM) :
 
Turbulence forte
LIMM SIGMET 13 VALID 200000/200400 LIMM
LIMM MILANO FIR SEV TURB FCST E OF LINE N4613 E01012 - N4336 E01030 FL260/360 MOV E WKN=



MET'MAP, la Météo Aéronautique d'un coup d'oeil ! - Copyright ORBIFLY Décembre 2007 - Disclaimer

ORBIFLY MET'MAP TEAM :

Programmation & Développement : Alexandra Zaïnal
Conception & Développement : Baudouin d'Aumeries
Co-Programmation & Développement : Marc-Olivier Méhu
Soutien technique & logistique : Manuel Goepfert

Contact : metmap@orbifly.com




SOURCES & CREDITS :

   NOAA